Time,TemperatureF,DewpointF,PressureIn,WindDirection,WindDirectionDegrees,WindSpeedMPH,WindSpeedGustMPH,Humidity,HourlyPrecipIn,Conditions,Clouds,dailyrainin,SolarRadiationWatts/m^2,SoftwareType,DateUTC
2013-04-24 00:01:00,53.5,52.3,30.16,SE,139,0.0,0.0,96,0.00,,,0.00,0.00,VWS V14.01,2013-04-24 04:01:00,
2013-04-24 00:06:00,53.2,52.1,30.16,SE,139,0.0,0.0,96,0.00,,,0.00,0.00,VWS V14.01,2013-04-24 04:06:00,
2013-04-24 00:11:00,53.2,52.0,30.16,SE,139,0.0,0.0,96,0.00,,,0.00,0.00,VWS V14.01,2013-04-24 04:11:00,
2013-04-24 00:16:00,52.8,51.5,30.16,SE,139,0.0,0.0,95,0.00,,,0.00,0.00,VWS V14.01,2013-04-24 04:16:00,
2013-04-24 00:21:00,52.7,51.5,30.16,SE,139,0.0,0.0,96,0.00,,,0.00,0.00,VWS V14.01,2013-04-24 04:21:00,
2013-04-24 00:26:00,52.7,51.5,30.16,SE,139,0.0,0.0,96,0.00,,,0.00,0.00,VWS V14.01,2013-04-24 04:26:00,
2013-04-24 00:31:00,52.7,51.5,30.16,SE,139,0.0,0.0,96,0.00,,,0.00,0.00,VWS V14.01,2013-04-24 04:31:00,
2013-04-24 00:36:00,52.7,51.5,30.16,SE,139,0.0,0.0,96,0.00,,,0.00,0.00,VWS V14.01,2013-04-24 04:36:00,
2013-04-24 00:41:00,52.7,51.5,30.16,SE,139,0.0,0.0,96,0.00,,,0.00,0.00,VWS V14.01,2013-04-24 04:41:00,
2013-04-24 00:46:00,52.3,51.2,30.16,SE,139,0.0,0.0,96,0.00,,,0.00,0.00,VWS V14.01,2013-04-24 04:46:00,
2013-04-24 00:51:00,52.0,51.0,30.17,SE,139,0.0,0.0,96,0.00,,,0.00,0.00,VWS V14.01,2013-04-24 04:51:00,
2013-04-24 00:56:00,51.8,50.8,30.16,SE,139,0.0,0.0,96,0.00,,,0.00,0.00,VWS V14.01,2013-04-24 04:56:00,
2013-04-24 01:01:00,51.8,50.8,30.16,SE,139,0.0,0.0,96,0.00,,,0.00,0.00,VWS V14.01,2013-04-24 05:01:00,
2013-04-24 01:06:00,52.0,50.8,30.16,SE,139,0.0,0.0,96,0.00,,,0.00,0.00,VWS V14.01,2013-04-24 05:06:00,
2013-04-24 01:11:00,51.8,50.7,30.16,SE,139,0.0,0.0,96,0.00,,,0.00,0.00,VWS V14.01,2013-04-24 05:11:00,
2013-04-24 01:16:00,51.5,50.5,30.16,SE,139,0.0,0.0,96,0.00,,,0.00,0.00,VWS V14.01,2013-04-24 05:16:00,
2013-04-24 01:21:00,51.5,50.5,30.16,SE,139,0.0,0.0,96,0.00,,,0.00,0.00,VWS V14.01,2013-04-24 05:21:00,
2013-04-24 01:26:00,51.5,50.3,30.16,SE,139,0.0,0.0,96,0.00,,,0.00,0.00,VWS V14.01,2013-04-24 05:26:00,
2013-04-24 01:31:00,51.5,50.3,30.15,SE,139,0.0,0.0,96,0.00,,,0.00,0.00,VWS V14.01,2013-04-24 05:31:00,
2013-04-24 01:36:00,51.3,50.2,30.15,SE,139,0.0,0.0,96,0.00,,,0.00,0.00,VWS V14.01,2013-04-24 05:36:00,
2013-04-24 01:41:00,51.2,50.0,30.15,SE,139,0.0,0.0,96,0.00,,,0.00,0.00,VWS V14.01,2013-04-24 05:41:00,
2013-04-24 01:46:00,50.8,49.8,30.15,SE,139,0.0,0.0,96,0.00,,,0.00,0.00,VWS V14.01,2013-04-24 05:46:00,
2013-04-24 01:51:00,50.8,49.8,30.15,SE,139,0.0,0.0,96,0.00,,,0.00,0.00,VWS V14.01,2013-04-24 05:51:00,
2013-04-24 01:56:00,51.0,49.8,30.15,SE,139,0.0,0.0,96,0.00,,,0.00,0.00,VWS V14.01,2013-04-24 05:56:00,
2013-04-24 02:01:00,50.8,49.8,30.15,SE,139,0.0,0.0,96,0.00,,,0.00,0.00,VWS V14.01,2013-04-24 06:01:00,
2013-04-24 02:06:00,50.7,49.5,30.15,SE,139,0.0,0.0,96,0.00,,,0.00,0.00,VWS V14.01,2013-04-24 06:06:00,
2013-04-24 02:11:00,50.5,49.4,30.15,SE,139,0.0,0.0,96,0.00,,,0.00,0.00,VWS V14.01,2013-04-24 06:11:00,
2013-04-24 02:16:00,50.3,49.3,30.14,SE,139,0.0,0.0,96,0.00,,,0.00,0.00,VWS V14.01,2013-04-24 06:16:00,
2013-04-24 02:21:00,50.2,49.2,30.14,SE,139,0.0,0.0,96,0.00,,,0.00,0.00,VWS V14.01,2013-04-24 06:21:00,
2013-04-24 02:26:00,50.2,49.1,30.14,SE,139,0.0,0.0,96,0.00,,,0.00,0.00,VWS V14.01,2013-04-24 06:26:00,
2013-04-24 02:31:00,50.2,49.1,30.14,SE,139,0.0,0.0,96,0.00,,,0.00,0.00,VWS V14.01,2013-04-24 06:31:00,
2013-04-24 02:36:00,50.0,49.0,30.14,SE,139,0.0,0.0,96,0.00,,,0.00,0.00,VWS V14.01,2013-04-24 06:36:00,
2013-04-24 02:41:00,50.0,49.0,30.14,SE,139,0.0,0.0,96,0.00,,,0.00,0.00,VWS V14.01,2013-04-24 06:41:00,
2013-04-24 02:46:00,50.0,48.9,30.14,SE,139,0.0,0.0,96,0.00,,,0.00,0.00,VWS V14.01,2013-04-24 06:46:00,
2013-04-24 02:51:00,50.0,48.9,30.13,SE,139,0.0,0.0,96,0.00,,,0.00,0.00,VWS V14.01,2013-04-24 06:51:00,
2013-04-24 02:56:00,49.8,48.8,30.13,SE,139,0.0,0.0,96,0.00,,,0.00,0.00,VWS V14.01,2013-04-24 06:56:00,
2013-04-24 03:01:00,49.8,48.7,30.13,SE,139,0.0,0.0,96,0.00,,,0.00,0.00,VWS V14.01,2013-04-24 07:01:00,
2013-04-24 03:06:00,49.7,48.6,30.13,SE,139,0.0,0.0,96,0.00,,,0.00,0.00,VWS V14.01,2013-04-24 07:06:00,
2013-04-24 03:11:00,49.7,48.8,30.13,SE,139,0.0,0.0,97,0.00,,,0.00,0.00,VWS V14.01,2013-04-24 07:11:00,
2013-04-24 03:16:00,49.7,48.8,30.13,SE,139,0.0,0.0,97,0.00,,,0.00,0.00,VWS V14.01,2013-04-24 07:16:00,
2013-04-24 03:21:00,49.3,48.3,30.13,SE,139,0.0,0.0,96,0.00,,,0.00,0.00,VWS V14.01,2013-04-24 07:21:00,
2013-04-24 03:26:00,49.2,48.4,30.12,SE,139,0.0,0.0,97,0.00,,,0.00,0.00,VWS V14.01,2013-04-24 07:26:00,
2013-04-24 03:31:00,49.3,48.5,30.12,SE,139,0.0,0.0,97,0.00,,,0.00,0.00,VWS V14.01,2013-04-24 07:31:00,
2013-04-24 03:36:00,49.3,48.5,30.13,SE,139,0.0,0.0,97,0.00,,,0.00,0.00,VWS V14.01,2013-04-24 07:36:00,
2013-04-24 03:41:00,49.2,48.4,30.13,SE,139,0.0,0.0,97,0.00,,,0.00,0.00,VWS V14.01,2013-04-24 07:41:00,
2013-04-24 03:46:00,49.0,48.2,30.13,SE,139,0.0,0.0,97,0.00,,,0.00,0.00,VWS V14.01,2013-04-24 07:46:00,
2013-04-24 03:51:00,49.0,48.1,30.13,SE,139,0.0,0.0,97,0.00,,,0.00,0.00,VWS V14.01,2013-04-24 07:51:00,
2013-04-24 03:56:00,48.8,47.8,30.13,SE,139,0.0,0.0,96,0.00,,,0.00,0.00,VWS V14.01,2013-04-24 07:56:00,
2013-04-24 04:01:00,48.7,47.8,30.13,SE,139,0.0,0.0,97,0.00,,,0.00,0.00,VWS V14.01,2013-04-24 08:01:00,
2013-04-24 04:06:00,48.7,47.8,30.13,SE,139,0.0,0.0,97,0.00,,,0.00,0.00,VWS V14.01,2013-04-24 08:06:00,
2013-04-24 04:11:00,48.8,47.9,30.13,SE,139,0.0,0.0,97,0.00,,,0.00,0.00,VWS V14.01,2013-04-24 08:11:00,
2013-04-24 04:16:00,48.7,47.8,30.13,SE,139,0.0,0.0,97,0.00,,,0.00,0.00,VWS V14.01,2013-04-24 08:16:00,
2013-04-24 04:21:00,48.5,47.6,30.13,SE,139,0.0,0.0,97,0.00,,,0.00,0.00,VWS V14.01,2013-04-24 08:21:00,
2013-04-24 04:26:00,48.5,47.6,30.13,SE,139,0.0,0.0,97,0.00,,,0.00,0.00,VWS V14.01,2013-04-24 08:26:00,
2013-04-24 04:31:00,48.5,47.6,30.13,SE,139,0.0,0.0,97,0.00,,,0.00,0.00,VWS V14.01,2013-04-24 08:31:00,
2013-04-24 04:36:00,48.3,47.5,30.13,SE,139,0.0,0.0,97,0.00,,,0.00,0.00,VWS V14.01,2013-04-24 08:36:00,
2013-04-24 04:41:00,48.2,47.3,30.13,SE,139,0.0,0.0,97,0.00,,,0.00,0.00,VWS V14.01,2013-04-24 08:41:00,
2013-04-24 04:46:00,48.2,47.3,30.13,SE,139,0.0,0.0,97,0.00,,,0.00,0.00,VWS V14.01,2013-04-24 08:46:00,
2013-04-24 04:51:00,48.0,47.2,30.13,SE,139,0.0,0.0,97,0.00,,,0.00,0.00,VWS V14.01,2013-04-24 08:51:00,
2013-04-24 04:56:00,48.0,47.2,30.13,SE,139,0.0,0.0,97,0.00,,,0.00,0.00,VWS V14.01,2013-04-24 08:56:00,
2013-04-24 05:01:00,48.0,47.2,30.13,SE,139,0.0,0.0,97,0.00,,,0.00,0.00,VWS V14.01,2013-04-24 09:01:00,
2013-04-24 05:06:00,48.0,47.2,30.13,SE,139,0.0,0.0,97,0.00,,,0.00,0.00,VWS V14.01,2013-04-24 09:06:00,
2013-04-24 05:11:00,48.0,47.1,30.13,SE,139,0.0,0.0,97,0.00,,,0.00,0.00,VWS V14.01,2013-04-24 09:11:00,
2013-04-24 05:16:00,48.0,47.2,30.13,SE,139,0.0,0.0,97,0.00,,,0.00,0.00,VWS V14.01,2013-04-24 09:16:00,
2013-04-24 05:21:00,48.0,47.2,30.13,SE,139,0.0,0.0,97,0.00,,,0.00,0.00,VWS V14.01,2013-04-24 09:21:00,
2013-04-24 05:26:00,48.0,47.2,30.13,SE,139,0.0,0.0,97,0.00,,,0.00,0.00,VWS V14.01,2013-04-24 09:26:00,
2013-04-24 05:31:00,48.0,47.1,30.13,SE,139,0.0,0.0,97,0.00,,,0.00,0.00,VWS V14.01,2013-04-24 09:31:00,
2013-04-24 05:36:00,47.8,47.0,30.13,SE,139,0.0,0.0,97,0.00,,,0.00,0.00,VWS V14.01,2013-04-24 09:36:00,
2013-04-24 05:41:00,47.8,46.9,30.13,SE,139,0.0,0.0,97,0.00,,,0.00,0.00,VWS V14.01,2013-04-24 09:41:00,
2013-04-24 05:46:00,47.7,46.8,30.13,SE,139,0.0,0.0,97,0.00,,,0.00,0.00,VWS V14.01,2013-04-24 09:46:00,
2013-04-24 05:51:00,47.5,46.7,30.13,SE,139,0.0,0.0,97,0.00,,,0.00,0.00,VWS V14.01,2013-04-24 09:51:00,
2013-04-24 05:56:00,47.5,46.6,30.14,SE,139,0.0,0.0,97,0.00,,,0.00,0.00,VWS V14.01,2013-04-24 09:56:00,
2013-04-24 06:01:00,47.3,46.5,30.14,SE,139,0.0,0.0,97,0.00,,,0.00,0.00,VWS V14.01,2013-04-24 10:01:00,
2013-04-24 06:06:00,47.3,46.5,30.14,SE,139,0.0,0.0,97,0.00,,,0.00,0.00,VWS V14.01,2013-04-24 10:06:00,
2013-04-24 06:11:00,47.3,46.5,30.13,SE,139,0.0,0.0,97,0.00,,,0.00,0.00,VWS V14.01,2013-04-24 10:11:00,
2013-04-24 06:16:00,47.3,46.5,30.13,SE,139,0.0,0.0,97,0.00,,,0.00,0.00,VWS V14.01,2013-04-24 10:16:00,
2013-04-24 06:21:00,47.3,46.5,30.14,SE,139,0.0,0.0,97,0.00,,,0.00,0.00,VWS V14.01,2013-04-24 10:21:00,
2013-04-24 06:26:00,47.2,46.4,30.14,SE,139,0.0,0.0,97,0.00,,,0.00,0.00,VWS V14.01,2013-04-24 10:26:00,
2013-04-24 06:31:00,47.0,46.2,30.14,SE,139,0.0,0.0,97,0.00,,,0.00,0.00,VWS V14.01,2013-04-24 10:31:00,
2013-04-24 06:36:00,47.0,46.2,30.14,SE,139,0.0,0.0,97,0.00,,,0.00,0.00,VWS V14.01,2013-04-24 10:36:00,
2013-04-24 06:41:00,47.0,46.2,30.14,SE,139,0.0,0.0,97,0.00,,,0.00,0.00,VWS V14.01,2013-04-24 10:41:00,
2013-04-24 06:46:00,46.8,46.0,30.14,SE,139,0.0,0.0,97,0.00,,,0.00,5.00,VWS V14.01,2013-04-24 10:46:00,
2013-04-24 06:51:00,47.0,46.2,30.14,SE,139,0.0,0.0,97,0.00,,,0.00,5.00,VWS V14.01,2013-04-24 10:51:00,
2013-04-24 06:56:00,47.0,46.2,30.15,SE,139,0.0,0.0,97,0.00,,,0.00,9.00,VWS V14.01,2013-04-24 10:56:00,
2013-04-24 07:01:00,47.0,46.2,30.15,SE,139,0.0,0.0,97,0.00,,,0.00,11.00,VWS V14.01,2013-04-24 11:01:00,
2013-04-24 07:06:00,47.0,46.2,30.15,SE,139,0.0,0.0,97,0.00,,,0.00,12.00,VWS V14.01,2013-04-24 11:06:00,
2013-04-24 07:11:00,47.0,46.2,30.15,SE,139,0.0,0.0,97,0.00,,,0.00,14.00,VWS V14.01,2013-04-24 11:11:00,
2013-04-24 07:16:00,47.2,46.3,30.16,SE,139,0.0,0.0,97,0.00,,,0.00,16.00,VWS V14.01,2013-04-24 11:16:00,
2013-04-24 07:21:00,47.2,46.4,30.16,SE,139,0.0,0.0,97,0.00,,,0.00,18.00,VWS V14.01,2013-04-24 11:21:00,
2013-04-24 07:26:00,47.3,46.5,30.16,SE,139,0.0,0.0,97,0.00,,,0.00,19.00,VWS V14.01,2013-04-24 11:26:00,
2013-04-24 07:31:00,47.5,46.7,30.16,SE,139,0.0,0.0,97,0.00,,,0.00,21.00,VWS V14.01,2013-04-24 11:31:00,
2013-04-24 07:36:00,47.8,46.9,30.17,SE,139,0.0,0.0,97,0.00,,,0.00,21.00,VWS V14.01,2013-04-24 11:36:00,
2013-04-24 07:41:00,48.2,47.3,30.17,SE,139,0.0,0.0,97,0.00,,,0.00,23.00,VWS V14.01,2013-04-24 11:41:00,
2013-04-24 07:46:00,48.3,47.5,30.17,SE,139,0.0,0.0,97,0.00,,,0.00,25.00,VWS V14.01,2013-04-24 11:46:00,
2013-04-24 07:51:00,48.8,47.9,30.17,SE,139,0.0,0.0,97,0.00,,,0.00,26.00,VWS V14.01,2013-04-24 11:51:00,
2013-04-24 07:56:00,49.0,48.2,30.17,SE,139,0.0,0.0,97,0.00,,,0.00,28.00,VWS V14.01,2013-04-24 11:56:00,
2013-04-24 08:01:00,49.5,48.7,30.17,SE,139,0.0,0.0,97,0.00,,,0.00,30.00,VWS V14.01,2013-04-24 12:01:00,
2013-04-24 08:06:00,50.0,49.4,30.17,SE,139,0.0,0.0,98,0.00,,,0.00,32.00,VWS V14.01,2013-04-24 12:06:00,
2013-04-24 08:11:00,50.5,49.6,30.18,SE,139,0.0,0.0,97,0.00,,,0.00,32.00,VWS V14.01,2013-04-24 12:11:00,
2013-04-24 08:16:00,51.0,50.4,30.18,SE,139,0.0,0.0,98,0.00,,,0.00,33.00,VWS V14.01,2013-04-24 12:16:00,
2013-04-24 08:21:00,51.3,50.8,30.18,SE,139,0.0,0.0,98,0.00,,,0.00,33.00,VWS V14.01,2013-04-24 12:21:00,
2013-04-24 08:26:00,51.8,50.9,30.18,SE,139,0.0,0.0,97,0.00,,,0.00,35.00,VWS V14.01,2013-04-24 12:26:00,
2013-04-24 08:31:00,52.5,51.9,30.18,SE,139,0.0,0.0,98,0.00,,,0.00,35.00,VWS V14.01,2013-04-24 12:31:00,
2013-04-24 08:36:00,53.2,52.6,30.18,SE,139,0.0,0.0,98,0.00,,,0.00,35.00,VWS V14.01,2013-04-24 12:36:00,
2013-04-24 08:41:00,53.8,53.3,30.18,SE,139,0.0,0.0,98,0.00,,,0.00,37.00,VWS V14.01,2013-04-24 12:41:00,
2013-04-24 08:46:00,54.8,54.2,30.18,SE,139,0.0,0.0,98,0.00,,,0.00,37.00,VWS V14.01,2013-04-24 12:46:00,
2013-04-24 08:51:00,55.5,54.9,30.18,SE,139,0.0,0.0,98,0.00,,,0.00,39.00,VWS V14.01,2013-04-24 12:51:00,
2013-04-24 08:56:00,56.0,55.5,30.18,SE,139,0.0,0.0,98,0.00,,,0.00,40.00,VWS V14.01,2013-04-24 12:56:00,
2013-04-24 09:01:00,56.7,56.1,30.18,SE,139,0.0,0.0,98,0.00,,,0.00,42.00,VWS V14.01,2013-04-24 13:01:00,
2013-04-24 09:06:00,57.3,56.8,30.18,SE,139,0.0,0.0,98,0.00,,,0.00,42.00,VWS V14.01,2013-04-24 13:06:00,
2013-04-24 09:11:00,58.0,57.5,30.18,SE,139,0.0,0.0,98,0.00,,,0.00,44.00,VWS V14.01,2013-04-24 13:11:00,
2013-04-24 09:16:00,58.8,58.2,30.18,SE,139,0.0,0.0,98,0.00,,,0.00,47.00,VWS V14.01,2013-04-24 13:16:00,
2013-04-24 09:21:00,59.5,58.9,30.18,SE,139,0.0,0.0,98,0.00,,,0.00,65.00,VWS V14.01,2013-04-24 13:21:00,
2013-04-24 09:26:00,60.0,59.5,30.18,SE,139,0.0,0.0,98,0.00,,,0.00,65.00,VWS V14.01,2013-04-24 13:26:00,
2013-04-24 09:31:00,60.7,60.1,30.18,SE,139,0.0,0.0,98,0.00,,,0.00,49.00,VWS V14.01,2013-04-24 13:31:00,
2013-04-24 09:36:00,61.7,60.8,30.18,SE,139,0.0,0.0,97,0.00,,,0.00,51.00,VWS V14.01,2013-04-24 13:36:00,
2013-04-24 09:41:00,62.8,61.3,30.18,SE,140,1.1,2.2,95,0.00,,,0.00,51.00,VWS V14.01,2013-04-24 13:41:00,
2013-04-24 09:46:00,63.8,61.4,30.18,SE,133,0.0,0.0,92,0.00,,,0.00,53.00,VWS V14.01,2013-04-24 13:46:00,
2013-04-24 09:51:00,64.6,60.9,30.18,SSE,149,1.1,1.1,88,0.00,,,0.00,53.00,VWS V14.01,2013-04-24 13:51:00,
2013-04-24 09:56:00,65.3,60.7,30.18,SSW,195,1.1,1.1,85,0.00,,,0.00,54.00,VWS V14.01,2013-04-24 13:56:00,
2013-04-24 10:01:00,65.9,60.7,30.17,SE,125,0.0,0.0,83,0.00,,,0.00,56.00,VWS V14.01,2013-04-24 14:01:00,
2013-04-24 10:06:00,66.7,60.6,30.17,ESE,106,0.0,1.1,81,0.00,,,0.00,58.00,VWS V14.01,2013-04-24 14:06:00,
2013-04-24 10:11:00,67.4,61.8,30.17,South,184,2.2,2.2,82,0.00,,,0.00,60.00,VWS V14.01,2013-04-24 14:11:00,
2013-04-24 10:16:00,67.7,60.9,30.17,SSE,164,0.0,2.2,79,0.00,,,0.00,60.00,VWS V14.01,2013-04-24 14:16:00,
2013-04-24 10:21:00,67.9,60.8,30.17,WSW,245,3.3,3.3,78,0.00,,,0.00,62.00,VWS V14.01,2013-04-24 14:21:00,
2013-04-24 10:26:00,68.6,61.1,30.17,SW,222,1.1,1.1,77,0.00,,,0.00,63.00,VWS V14.01,2013-04-24 14:26:00,
2013-04-24 10:31:00,69.1,61.2,30.17,SSW,212,0.0,2.2,76,0.00,,,0.00,74.00,VWS V14.01,2013-04-24 14:31:00,
2013-04-24 10:36:00,69.4,61.2,30.17,South,187,2.2,2.2,75,0.00,,,0.00,67.00,VWS V14.01,2013-04-24 14:36:00,
2013-04-24 10:41:00,69.8,61.5,30.16,South,173,0.0,1.1,75,0.00,,,0.00,67.00,VWS V14.01,2013-04-24 14:41:00,
2013-04-24 10:46:00,70.2,61.9,30.17,SE,134,1.1,2.2,75,0.00,,,0.00,70.00,VWS V14.01,2013-04-24 14:46:00,
2013-04-24 10:51:00,70.3,61.3,30.16,SSE,166,5.5,5.5,73,0.00,,,0.00,74.00,VWS V14.01,2013-04-24 14:51:00,
2013-04-24 10:56:00,70.7,61.2,30.16,SE,132,0.0,0.0,72,0.00,,,0.00,76.00,VWS V14.01,2013-04-24 14:56:00,
2013-04-24 11:01:00,71.1,62.3,30.16,South,187,3.3,5.5,74,0.00,,,0.00,79.00,VWS V14.01,2013-04-24 15:01:00,
2013-04-24 11:09:00,71.4,61.6,30.16,SSW,207,1.1,3.3,71,0.00,,,0.00,445.00,VWS V14.01,2013-04-24 15:09:00,
2013-04-24 11:14:00,72.1,61.7,30.16,SSE,160,2.2,2.2,70,0.00,,,0.00,717.00,VWS V14.01,2013-04-24 15:14:00,
2013-04-24 11:19:00,72.3,61.2,30.16,SE,136,0.0,3.3,68,0.00,,,0.00,779.00,VWS V14.01,2013-04-24 15:19:00,
2013-04-24 11:24:00,73.3,60.5,30.16,SW,214,5.5,5.5,64,0.00,,,0.00,812.00,VWS V14.01,2013-04-24 15:24:00,
2013-04-24 11:29:00,73.4,62.7,30.15,SW,215,3.3,3.3,69,0.00,,,0.00,810.00,VWS V14.01,2013-04-24 15:29:00,
2013-04-24 11:34:00,74.7,63.0,30.15,South,184,2.2,2.2,67,0.00,,,0.00,870.00,VWS V14.01,2013-04-24 15:34:00,
2013-04-24 11:39:00,74.2,61.3,30.15,SE,142,0.0,1.1,64,0.00,,,0.00,858.00,VWS V14.01,2013-04-24 15:39:00,
2013-04-24 11:44:00,74.4,60.6,30.15,South,185,2.2,2.2,62,0.00,,,0.00,879.00,VWS V14.01,2013-04-24 15:44:00,
2013-04-24 11:49:00,74.9,62.0,30.15,East,90,6.6,6.6,64,0.00,,,0.00,875.00,VWS V14.01,2013-04-24 15:49:00,
2013-04-24 11:54:00,75.2,60.4,30.15,SSE,168,1.1,2.2,60,0.00,,,0.00,870.00,VWS V14.01,2013-04-24 15:54:00,
2013-04-24 11:59:00,75.4,60.6,30.15,SSW,213,3.3,3.3,60,0.00,,,0.00,886.00,VWS V14.01,2013-04-24 15:59:00,
2013-04-24 12:04:00,75.2,61.2,30.15,South,183,3.3,3.3,62,0.00,,,0.00,888.00,VWS V14.01,2013-04-24 16:04:00,
2013-04-24 12:09:00,76.1,61.6,30.15,SSE,154,4.4,4.4,61,0.00,,,0.00,918.00,VWS V14.01,2013-04-24 16:09:00,
2013-04-24 12:14:00,75.8,60.4,30.14,ESE,104,2.2,2.2,59,0.00,,,0.00,958.00,VWS V14.01,2013-04-24 16:14:00,
2013-04-24 12:19:00,75.6,61.2,30.14,South,183,4.4,5.5,61,0.00,,,0.00,909.00,VWS V14.01,2013-04-24 16:19:00,
2013-04-24 12:24:00,75.8,60.5,30.14,SSW,193,3.3,4.4,59,0.00,,,0.00,947.00,VWS V14.01,2013-04-24 16:24:00,
2013-04-24 12:29:00,75.8,60.5,30.14,SW,228,1.1,1.1,59,0.00,,,0.00,953.00,VWS V14.01,2013-04-24 16:29:00,
2013-04-24 12:34:00,76.8,62.3,30.14,SSE,168,2.2,2.2,61,0.00,,,0.00,979.00,VWS V14.01,2013-04-24 16:34:00,
2013-04-24 12:39:00,76.8,61.4,30.13,SW,215,2.2,2.2,59,0.00,,,0.00,972.00,VWS V14.01,2013-04-24 16:39:00,
2013-04-24 12:44:00,76.8,62.3,30.13,ESE,115,2.2,3.3,61,0.00,,,0.00,997.00,VWS V14.01,2013-04-24 16:44:00,
2013-04-24 12:49:00,77.2,61.3,30.13,SW,232,3.3,6.6,58,0.00,,,0.00,984.00,VWS V14.01,2013-04-24 16:49:00,
2013-04-24 12:54:00,77.6,61.6,30.13,SSE,167,6.6,6.6,58,0.00,,,0.00,981.00,VWS V14.01,2013-04-24 16:54:00,
2013-04-24 12:59:00,77.2,60.8,30.13,South,176,2.2,6.6,57,0.00,,,0.00,981.00,VWS V14.01,2013-04-24 16:59:00,
2013-04-24 13:04:00,76.9,60.6,30.13,SSW,208,2.2,2.2,57,0.00,,,0.00,288.00,VWS V14.01,2013-04-24 17:04:00,
2013-04-24 13:09:00,76.2,60.4,30.14,SSW,197,4.4,5.5,58,0.00,,,0.00,1056.00,VWS V14.01,2013-04-24 17:09:00,
2013-04-24 13:14:00,77.2,59.8,30.14,South,191,2.2,2.2,55,0.00,,,0.00,1125.00,VWS V14.01,2013-04-24 17:14:00,
2013-04-24 13:19:00,77.8,61.8,30.14,SSW,204,0.0,1.1,58,0.00,,,0.00,279.00,VWS V14.01,2013-04-24 17:19:00,
2013-04-24 13:24:00,77.1,61.2,30.13,SE,132,6.6,6.6,58,0.00,,,0.00,1007.00,VWS V14.01,2013-04-24 17:24:00,
2013-04-24 13:29:00,77.8,61.9,30.13,ESE,123,4.4,7.7,58,0.00,,,0.00,990.00,VWS V14.01,2013-04-24 17:29:00,
2013-04-24 13:34:00,77.6,60.1,30.13,South,191,3.3,7.7,55,0.00,,,0.00,997.00,VWS V14.01,2013-04-24 17:34:00,
2013-04-24 13:39:00,78.3,62.8,30.13,South,189,0.0,2.2,59,0.00,,,0.00,962.00,VWS V14.01,2013-04-24 17:39:00,
2013-04-24 13:44:00,78.6,59.5,30.13,South,189,1.1,3.3,52,0.00,,,0.00,974.00,VWS V14.01,2013-04-24 17:44:00,
2013-04-24 13:49:00,78.4,60.4,30.13,WNW,292,2.2,4.4,54,0.00,,,0.00,956.00,VWS V14.01,2013-04-24 17:49:00,
2013-04-24 13:54:00,78.3,59.3,30.13,WSW,239,4.4,4.4,52,0.00,,,0.00,976.00,VWS V14.01,2013-04-24 17:54:00,
2013-04-24 13:59:00,79.1,60.5,30.13,South,183,1.1,3.3,53,0.00,,,0.00,947.00,VWS V14.01,2013-04-24 17:59:00,
2013-04-24 14:04:00,78.3,58.2,30.12,NE,42,1.1,3.3,50,0.00,,,0.00,949.00,VWS V14.01,2013-04-24 18:04:00,
2013-04-24 14:09:00,78.9,59.8,30.12,South,181,2.2,2.2,52,0.00,,,0.00,953.00,VWS V14.01,2013-04-24 18:09:00,
2013-04-24 14:14:00,79.7,61.0,30.12,SSW,193,2.2,2.2,53,0.00,,,0.00,942.00,VWS V14.01,2013-04-24 18:14:00,
2013-04-24 14:19:00,79.3,60.2,30.12,SSW,200,0.0,1.1,52,0.00,,,0.00,972.00,VWS V14.01,2013-04-24 18:19:00,
2013-04-24 14:24:00,79.6,60.4,30.12,SW,221,2.2,3.3,52,0.00,,,0.00,930.00,VWS V14.01,2013-04-24 18:24:00,
2013-04-24 14:29:00,79.1,58.8,30.12,SE,129,3.3,5.5,50,0.00,,,0.00,928.00,VWS V14.01,2013-04-24 18:29:00,
2013-04-24 14:34:00,78.8,60.2,30.11,ESE,121,2.2,5.5,53,0.00,,,0.00,988.00,VWS V14.01,2013-04-24 18:34:00,
2013-04-24 14:39:00,78.7,57.9,30.11,WSW,239,4.4,4.4,49,0.00,,,0.00,963.00,VWS V14.01,2013-04-24 18:39:00,
2013-04-24 14:44:00,78.8,58.0,30.11,SW,218,1.1,1.1,49,0.00,,,0.00,974.00,VWS V14.01,2013-04-24 18:44:00,
2013-04-24 14:49:00,80.1,61.9,30.11,West,272,0.0,0.0,54,0.00,,,0.00,937.00,VWS V14.01,2013-04-24 18:49:00,
2013-04-24 14:54:00,79.3,60.8,30.11,SSE,165,1.1,2.2,53,0.00,,,0.00,810.00,VWS V14.01,2013-04-24 18:54:00,
2013-04-24 14:59:00,79.2,61.7,30.11,SSW,210,5.5,7.7,55,0.00,,,0.00,889.00,VWS V14.01,2013-04-24 18:59:00,
2013-04-24 15:04:00,79.2,60.6,30.10,SSE,164,1.1,2.2,53,0.00,,,0.00,881.00,VWS V14.01,2013-04-24 19:04:00,
2013-04-24 15:09:00,79.2,61.1,30.10,SE,142,4.4,4.4,54,0.00,,,0.00,861.00,VWS V14.01,2013-04-24 19:09:00,
2013-04-24 15:14:00,79.3,60.8,30.10,SSW,204,3.3,3.3,53,0.00,,,0.00,846.00,VWS V14.01,2013-04-24 19:14:00,
2013-04-24 15:19:00,79.6,60.4,30.10,SSW,212,6.6,7.7,52,0.00,,,0.00,791.00,VWS V14.01,2013-04-24 19:19:00,
2013-04-24 15:24:00,79.1,60.5,30.09,South,175,0.0,1.1,53,0.00,,,0.00,446.00,VWS V14.01,2013-04-24 19:24:00,
2013-04-24 15:29:00,79.3,59.7,30.09,SSW,213,3.3,3.3,51,0.00,,,0.00,563.00,VWS V14.01,2013-04-24 19:29:00,
2013-04-24 15:34:00,79.2,61.7,30.09,South,176,3.3,6.6,55,0.00,,,0.00,744.00,VWS V14.01,2013-04-24 19:34:00,
2013-04-24 15:39:00,79.8,59.6,30.09,SSW,208,1.1,1.1,50,0.00,,,0.00,768.00,VWS V14.01,2013-04-24 19:39:00,
2013-04-24 15:44:00,79.9,58.5,30.09,WSW,245,5.5,5.5,48,0.00,,,0.00,705.00,VWS V14.01,2013-04-24 19:44:00,
2013-04-24 15:49:00,79.7,58.8,30.09,SSW,198,1.1,2.2,49,0.00,,,0.00,666.00,VWS V14.01,2013-04-24 19:49:00,
2013-04-24 15:54:00,79.6,59.3,30.08,SSW,211,1.1,1.1,50,0.00,,,0.00,752.00,VWS V14.01,2013-04-24 19:54:00,
2013-04-24 15:59:00,80.2,59.3,30.08,South,176,3.3,3.3,49,0.00,,,0.00,700.00,VWS V14.01,2013-04-24 19:59:00,
2013-04-24 16:04:00,79.8,59.0,30.08,South,184,1.1,1.1,49,0.00,,,0.00,638.00,VWS V14.01,2013-04-24 20:04:00,
2013-04-24 16:09:00,79.9,61.3,30.08,South,175,5.5,5.5,53,0.00,,,0.00,675.00,VWS V14.01,2013-04-24 20:09:00,
2013-04-24 16:14:00,79.7,61.0,30.08,SSE,156,3.3,3.3,53,0.00,,,0.00,265.00,VWS V14.01,2013-04-24 20:14:00,
2013-04-24 16:19:00,80.2,61.5,30.08,South,191,2.2,5.5,53,0.00,,,0.00,613.00,VWS V14.01,2013-04-24 20:19:00,
2013-04-24 16:24:00,79.9,61.8,30.08,SSE,167,4.4,6.6,54,0.00,,,0.00,696.00,VWS V14.01,2013-04-24 20:24:00,
2013-04-24 16:29:00,79.2,61.2,30.08,SSE,162,5.5,5.5,54,0.00,,,0.00,229.00,VWS V14.01,2013-04-24 20:29:00,
2013-04-24 16:34:00,78.6,61.0,30.08,SSE,158,3.3,3.3,55,0.00,,,0.00,209.00,VWS V14.01,2013-04-24 20:34:00,
2013-04-24 16:39:00,78.1,61.1,30.08,WSW,252,1.1,1.1,56,0.00,,,0.00,172.00,VWS V14.01,2013-04-24 20:39:00,
2013-04-24 16:44:00,77.8,60.9,30.07,West,268,0.0,0.0,56,0.00,,,0.00,547.00,VWS V14.01,2013-04-24 20:44:00,
2013-04-24 16:49:00,79.1,61.5,30.07,SW,215,2.2,5.5,55,0.00,,,0.00,550.00,VWS V14.01,2013-04-24 20:49:00,
2013-04-24 16:54:00,80.3,62.7,30.07,SW,216,1.1,1.1,55,0.00,,,0.00,573.00,VWS V14.01,2013-04-24 20:54:00,
2013-04-24 16:59:00,79.8,61.7,30.07,South,178,2.2,2.2,54,0.00,,,0.00,209.00,VWS V14.01,2013-04-24 20:59:00,
2013-04-24 17:04:00,79.4,62.9,30.07,South,191,3.3,3.3,57,0.00,,,0.00,638.00,VWS V14.01,2013-04-24 21:04:00,
2013-04-24 17:09:00,79.8,63.3,30.06,SSW,202,3.3,4.4,57,0.00,,,0.00,561.00,VWS V14.01,2013-04-24 21:09:00,
2013-04-24 17:14:00,79.3,62.8,30.06,SW,214,1.1,2.2,57,0.00,,,0.00,527.00,VWS V14.01,2013-04-24 21:14:00,
2013-04-24 17:19:00,79.3,63.8,30.06,SE,143,3.3,3.3,59,0.00,,,0.00,554.00,VWS V14.01,2013-04-24 21:19:00,
2013-04-24 17:24:00,78.7,62.7,30.06,SW,235,1.1,1.1,58,0.00,,,0.00,185.00,VWS V14.01,2013-04-24 21:24:00,
2013-04-24 17:29:00,78.4,63.4,30.06,SW,227,0.0,1.1,60,0.00,,,0.00,156.00,VWS V14.01,2013-04-24 21:29:00,
2013-04-24 17:34:00,78.2,62.7,30.06,South,178,1.1,1.1,59,0.00,,,0.00,114.00,VWS V14.01,2013-04-24 21:34:00,
2013-04-24 17:39:00,77.7,63.2,30.06,SSW,213,3.3,3.3,61,0.00,,,0.00,116.00,VWS V14.01,2013-04-24 21:39:00,
2013-04-24 17:44:00,77.9,63.0,30.06,South,178,2.2,6.6,60,0.00,,,0.00,100.00,VWS V14.01,2013-04-24 21:44:00,
2013-04-24 17:49:00,77.8,63.2,30.06,SE,127,4.4,4.4,61,0.00,,,0.00,98.00,VWS V14.01,2013-04-24 21:49:00,
2013-04-24 17:54:00,77.8,62.4,30.06,SSW,212,5.5,8.8,59,0.00,,,0.00,97.00,VWS V14.01,2013-04-24 21:54:00,
2013-04-24 17:59:00,77.6,62.6,30.06,SSW,209,5.5,5.5,60,0.00,,,0.00,97.00,VWS V14.01,2013-04-24 21:59:00,
2013-04-24 18:04:00,77.4,63.0,30.06,SSE,156,4.4,4.4,61,0.00,,,0.00,93.00,VWS V14.01,2013-04-24 22:04:00,
2013-04-24 18:09:00,77.2,62.3,30.06,SSE,155,2.2,4.4,60,0.00,,,0.00,88.00,VWS V14.01,2013-04-24 22:09:00,
2013-04-24 18:14:00,77.1,61.6,30.06,SE,141,0.0,2.2,59,0.00,,,0.00,76.00,VWS V14.01,2013-04-24 22:14:00,
2013-04-24 18:19:00,76.6,61.6,30.06,SSW,204,0.0,0.0,60,0.00,,,0.00,69.00,VWS V14.01,2013-04-24 22:19:00,
2013-04-24 18:24:00,76.2,61.7,30.06,SW,222,1.1,2.2,61,0.00,,,0.00,67.00,VWS V14.01,2013-04-24 22:24:00,
2013-04-24 18:29:00,75.6,61.2,30.06,SSW,204,5.5,5.5,61,0.00,,,0.00,65.00,VWS V14.01,2013-04-24 22:29:00,
2013-04-24 18:34:00,75.1,60.7,30.06,SSW,194,3.3,4.4,61,0.00,,,0.00,70.00,VWS V14.01,2013-04-24 22:34:00,
2013-04-24 18:39:00,74.7,60.3,30.06,South,187,3.3,3.3,61,0.00,,,0.00,74.00,VWS V14.01,2013-04-24 22:39:00,
2013-04-24 18:44:00,74.2,60.4,30.06,South,172,0.0,3.3,62,0.00,,,0.00,62.00,VWS V14.01,2013-04-24 22:44:00,
2013-04-24 18:49:00,74.1,60.2,30.06,SSW,208,0.0,5.5,62,0.00,,,0.00,58.00,VWS V14.01,2013-04-24 22:49:00,
2013-04-24 18:54:00,73.8,60.5,30.06,SSW,207,1.1,3.3,63,0.00,,,0.00,53.00,VWS V14.01,2013-04-24 22:54:00,
2013-04-24 18:59:00,73.4,61.0,30.05,SSE,151,0.0,0.0,65,0.00,,,0.00,42.00,VWS V14.01,2013-04-24 22:59:00,
2013-04-24 19:04:00,73.2,60.3,30.05,SSE,148,3.3,5.5,64,0.00,,,0.00,33.00,VWS V14.01,2013-04-24 23:04:00,
2013-04-24 19:09:00,72.8,59.1,30.06,SSW,211,5.5,9.9,62,0.00,,,0.00,28.00,VWS V14.01,2013-04-24 23:09:00,
2013-04-24 19:14:00,72.7,59.3,30.06,SSW,206,1.1,1.1,63,0.00,,,0.00,25.00,VWS V14.01,2013-04-24 23:14:00,
2013-04-24 19:19:00,72.6,58.8,30.07,SSW,202,1.1,3.3,62,0.00,,,0.00,21.00,VWS V14.01,2013-04-24 23:19:00,
2013-04-24 19:24:00,72.4,59.6,30.07,South,178,1.1,1.1,64,0.00,,,0.00,25.00,VWS V14.01,2013-04-24 23:24:00,
2013-04-24 19:29:00,72.2,59.0,30.07,SW,224,6.6,6.6,63,0.00,,,0.00,25.00,VWS V14.01,2013-04-24 23:29:00,
2013-04-24 19:34:00,72.2,58.5,30.07,SSW,208,4.4,4.4,62,0.00,,,0.00,18.00,VWS V14.01,2013-04-24 23:34:00,
2013-04-24 19:39:00,72.2,58.9,30.07,South,173,2.2,4.4,63,0.00,,,0.00,12.00,VWS V14.01,2013-04-24 23:39:00,
2013-04-24 19:44:00,71.8,58.6,30.07,SW,214,3.3,3.3,63,0.00,,,0.00,9.00,VWS V14.01,2013-04-24 23:44:00,
2013-04-24 19:49:00,71.6,58.3,30.07,SSW,208,0.0,2.2,63,0.00,,,0.00,5.00,VWS V14.01,2013-04-24 23:49:00,
2013-04-24 19:54:00,71.3,58.1,30.07,SSW,201,1.1,1.1,63,0.00,,,0.00,0.00,VWS V14.01,2013-04-24 23:54:00,
2013-04-24 19:59:00,70.9,58.2,30.08,SW,220,2.2,2.2,64,0.00,,,0.00,0.00,VWS V14.01,2013-04-24 23:59:00,
2013-04-24 20:04:00,70.8,58.1,30.08,SSW,208,0.0,0.0,64,0.00,,,0.00,0.00,VWS V14.01,2013-04-25 00:04:00,
2013-04-24 20:09:00,70.6,58.2,30.09,SSE,161,1.1,1.1,65,0.00,,,0.00,0.00,VWS V14.01,2013-04-25 00:09:00,
2013-04-24 20:14:00,70.3,59.3,30.09,SSW,208,0.0,0.0,68,0.00,,,0.00,0.00,VWS V14.01,2013-04-25 00:14:00,
2013-04-24 20:19:00,69.8,59.1,30.09,SSW,197,0.0,3.3,69,0.00,,,0.00,0.00,VWS V14.01,2013-04-25 00:19:00,
2013-04-24 20:24:00,69.8,59.1,30.09,SSW,203,2.2,4.4,69,0.00,,,0.00,0.00,VWS V14.01,2013-04-25 00:24:00,
2013-04-24 20:29:00,69.8,59.1,30.09,SW,218,2.2,4.4,69,0.00,,,0.00,0.00,VWS V14.01,2013-04-25 00:29:00,
2013-04-24 20:34:00,69.7,59.4,30.10,SSW,210,1.1,2.2,70,0.00,,,0.00,0.00,VWS V14.01,2013-04-25 00:34:00,
2013-04-24 20:39:00,69.4,59.7,30.10,SSE,160,0.0,0.0,71,0.00,,,0.00,0.00,VWS V14.01,2013-04-25 00:39:00,
2013-04-24 20:44:00,69.2,59.8,30.10,South,187,1.1,1.1,72,0.00,,,0.00,0.00,VWS V14.01,2013-04-25 00:44:00,
2013-04-24 20:49:00,69.2,60.1,30.10,SSE,152,0.0,3.3,73,0.00,,,0.00,0.00,VWS V14.01,2013-04-25 00:49:00,
2013-04-24 20:54:00,68.9,60.3,30.10,SSE,152,0.0,0.0,74,0.00,,,0.00,0.00,VWS V14.01,2013-04-25 00:54:00,
2013-04-24 20:59:00,68.8,60.5,30.10,SSW,208,2.2,4.4,75,0.00,,,0.00,0.00,VWS V14.01,2013-04-25 00:59:00,
2013-04-24 21:04:00,68.7,60.8,30.10,SSW,198,1.1,3.3,76,0.00,,,0.00,0.00,VWS V14.01,2013-04-25 01:04:00,
2013-04-24 21:09:00,68.6,61.1,30.11,SSW,192,1.1,2.2,77,0.00,,,0.00,0.00,VWS V14.01,2013-04-25 01:09:00,
2013-04-24 21:14:00,68.6,61.1,30.10,SSW,208,0.0,1.1,77,0.00,,,0.00,0.00,VWS V14.01,2013-04-25 01:14:00,
2013-04-24 21:19:00,68.3,61.2,30.11,SSW,199,1.1,2.2,78,0.00,,,0.00,0.00,VWS V14.01,2013-04-25 01:19:00,
2013-04-24 21:24:00,68.2,61.5,30.11,SW,226,1.1,3.3,79,0.00,,,0.00,0.00,VWS V14.01,2013-04-25 01:24:00,
2013-04-24 21:28:00,68.2,61.8,30.11,South,184,0.0,0.0,80,0.00,,,0.00,0.00,VWS V14.01,2013-04-25 01:28:00,
2013-04-24 21:33:00,67.9,61.9,30.11,South,172,0.0,1.1,81,0.00,,,0.00,0.00,VWS V14.01,2013-04-25 01:33:00,
2013-04-24 21:38:00,67.8,61.7,30.11,South,183,0.0,1.1,81,0.00,,,0.00,0.00,VWS V14.01,2013-04-25 01:38:00,
2013-04-24 21:43:00,67.7,62.0,30.11,SSW,206,0.0,3.3,82,0.00,,,0.00,0.00,VWS V14.01,2013-04-25 01:43:00,
2013-04-24 21:48:00,67.6,61.9,30.11,South,178,0.0,0.0,82,0.00,,,0.00,0.00,VWS V14.01,2013-04-25 01:48:00,
2013-04-24 21:53:00,67.4,62.1,30.11,SW,216,1.1,4.4,83,0.00,,,0.00,0.00,VWS V14.01,2013-04-25 01:53:00,
2013-04-24 21:58:00,67.3,62.3,30.11,SSW,200,0.0,1.1,84,0.00,,,0.00,0.00,VWS V14.01,2013-04-25 01:58:00,
2013-04-24 22:03:00,67.3,62.3,30.11,SSE,161,0.0,1.1,84,0.00,,,0.00,0.00,VWS V14.01,2013-04-25 02:03:00,
2013-04-24 22:08:00,67.2,62.2,30.11,South,175,0.0,1.1,84,0.00,,,0.00,0.00,VWS V14.01,2013-04-25 02:08:00,
2013-04-24 22:13:00,67.1,62.4,30.11,SSW,200,0.0,1.1,85,0.00,,,0.00,0.00,VWS V14.01,2013-04-25 02:13:00,
2013-04-24 22:18:00,66.8,62.2,30.11,ESE,109,0.0,1.1,85,0.00,,,0.00,0.00,VWS V14.01,2013-04-25 02:18:00,
2013-04-24 22:23:00,66.8,62.5,30.11,SSW,194,1.1,2.2,86,0.00,,,0.00,0.00,VWS V14.01,2013-04-25 02:23:00,
2013-04-24 22:28:00,66.8,62.4,30.11,SSW,193,3.3,3.3,86,0.00,,,0.00,0.00,VWS V14.01,2013-04-25 02:28:00,
2013-04-24 22:33:00,66.8,62.4,30.11,SSE,162,0.0,1.1,86,0.00,,,0.00,0.00,VWS V14.01,2013-04-25 02:33:00,
2013-04-24 22:38:00,66.8,62.4,30.11,SW,216,0.0,0.0,86,0.00,,,0.00,0.00,VWS V14.01,2013-04-25 02:38:00,
2013-04-24 22:43:00,66.8,62.8,30.11,SSW,210,0.0,2.2,87,0.00,,,0.00,0.00,VWS V14.01,2013-04-25 02:43:00,
2013-04-24 22:48:00,66.7,62.7,30.11,SSE,150,0.0,3.3,87,0.00,,,0.00,0.00,VWS V14.01,2013-04-25 02:48:00,
2013-04-24 22:53:00,66.7,62.7,30.11,SSW,205,4.4,4.4,87,0.00,,,0.00,0.00,VWS V14.01,2013-04-25 02:53:00,
2013-04-24 22:58:00,66.8,62.8,30.10,SSE,164,0.0,1.1,87,0.00,,,0.00,0.00,VWS V14.01,2013-04-25 02:58:00,
2013-04-24 23:03:00,66.8,62.8,30.10,South,171,2.2,2.2,87,0.00,,,0.00,0.00,VWS V14.01,2013-04-25 03:03:00,
2013-04-24 23:08:00,66.7,62.7,30.10,South,187,0.0,1.1,87,0.00,,,0.00,0.00,VWS V14.01,2013-04-25 03:08:00,
2013-04-24 23:13:00,66.6,62.9,30.10,South,181,0.0,2.2,88,0.00,,,0.00,0.00,VWS V14.01,2013-04-25 03:13:00,
2013-04-24 23:18:00,66.4,62.8,30.10,South,181,0.0,0.0,88,0.00,,,0.00,0.00,VWS V14.01,2013-04-25 03:18:00,
2013-04-24 23:23:00,66.3,62.7,30.10,SE,146,0.0,0.0,88,0.00,,,0.00,0.00,VWS V14.01,2013-04-25 03:23:00,
2013-04-24 23:28:00,66.3,62.7,30.10,South,171,0.0,0.0,88,0.00,,,0.00,0.00,VWS V14.01,2013-04-25 03:28:00,
2013-04-24 23:33:00,66.2,62.6,30.09,South,181,0.0,0.0,88,0.00,,,0.00,0.00,VWS V14.01,2013-04-25 03:33:00,
2013-04-24 23:38:00,66.2,62.6,30.09,South,181,0.0,0.0,88,0.00,,,0.00,0.00,VWS V14.01,2013-04-25 03:38:00,
2013-04-24 23:43:00,66.1,62.7,30.10,SSE,154,0.0,0.0,89,0.00,,,0.00,0.00,VWS V14.01,2013-04-25 03:43:00,
2013-04-24 23:48:00,66.1,62.7,30.10,SSW,204,0.0,2.2,89,0.00,,,0.00,0.00,VWS V14.01,2013-04-25 03:48:00,
2013-04-24 23:53:00,66.2,62.8,30.09,South,191,0.0,0.0,89,0.00,,,0.00,0.00,VWS V14.01,2013-04-25 03:53:00,
2013-04-24 23:58:00,66.2,62.8,30.09,SSE,148,0.0,2.2,89,0.00,,,0.00,0.00,VWS V14.01,2013-04-25 03:58:00,